Hovedside
METAR-TAF:

METAR-TAF

Lufthavner :

Mo i Rana, Norge

Mo i Rana lufthavn

breddegrad: 66-22N, lengdegrad: 014-18E, høyde over havet: 7 m

Gjeldene værobservasjon

Denne rapporten ble laget for 4 timer og 29 minutter siden, klokken 14:50 UTC
Vind 11 kt fra Øst-nordøst
Temperatur 11°C
Luftfuktighet 54%
Trykk 1016 hPa
Sikt 10 km eller mer
Brutte skyer i en høyde av 3500 ft

METAR: ENRA 271450Z 07011KT 9999 BKN035 11/02 Q1016

Tid: 21:19 (19:19 UTC)

Varsel

Denne rapporten ble laget for 11 timer og 19 minutter siden, klokken 08:00 UTC
Varsel gyldig fra 27. klokken 09 UTC til 27. klokken 14 UTC
Vind 5 kt fra skiftende retning
Sikt 10 km eller mer
Få skyer i en høyde av 1500 ft
Brutte skyer i en høyde av 4000 ft
Midlertidig
fra 27. klokken 09 UTC til 27. klokken 14 UTC
Vind 10 kt fra Øst

TAF: ENRA 270800Z 2709/2714 VRB05KT 9999 FEW015 BKN040 TEMPO 2709/2714 09010KT

Værobservasjoner og værvarsel for over 4000 flyplasser (METAR- og TAF-rapporter).

Tilgjengelige stasjoner er representert av de røde og gule prikkene på kartet.

Hold musepekeren over prikken for å se navnet på stasjonen.

Klikk så for å se værobservasjoner og -varsler.

For å forandre kartet kan du klikke på den grønne knappen med svart kryss for å zoome inn, på den grønne knappen med strek for å zoome ut, eller på de grønne pilene for å se tilstøtende kart.


METAR-TAF: